createdAt,value
2022-11-06T00:03:37.136Z,7.15
2022-11-06T00:08:39.116Z,5.70
2022-11-06T00:13:39.071Z,6.35
2022-11-06T00:18:39.421Z,7.10
2022-11-06T00:23:38.447Z,4.95
2022-11-06T00:28:38.238Z,7.22
2022-11-06T00:33:37.681Z,5.28
2022-11-06T00:38:36.650Z,6.97
2022-11-06T00:43:35.993Z,6.25
2022-11-06T00:48:35.325Z,6.18
2022-11-06T00:53:34.553Z,5.65
2022-11-06T00:58:33.757Z,5.15
2022-11-06T01:03:32.558Z,5.55
2022-11-06T01:08:32.159Z,5.53
2022-11-06T01:13:30.825Z,5.10
2022-11-06T01:18:29.993Z,5.43
2022-11-06T01:23:28.976Z,4.15
2022-11-06T01:28:28.543Z,4.53
2022-11-06T01:33:27.525Z,4.47
2022-11-06T01:38:27.224Z,4.90
2022-11-06T01:43:43.704Z,5.15
2022-11-06T01:48:46.335Z,5.10
2022-11-06T01:53:45.621Z,5.28
2022-11-06T01:58:46.812Z,5.55
2022-11-06T02:03:52.695Z,6.70
2022-11-06T02:08:51.652Z,5.07
2022-11-06T02:13:53.361Z,6.78
2022-11-06T02:19:06.808Z,4.90
2022-11-06T02:24:36.114Z,5.43
2022-11-06T02:29:41.757Z,4.80
2022-11-06T02:34:43.502Z,5.85
2022-11-06T02:39:46.526Z,5.28
2022-11-06T02:44:49.484Z,4.95
2022-11-06T02:50:05.134Z,5.07
2022-11-06T02:55:11.792Z,5.88
2022-11-06T03:00:15.434Z,5.72
2022-11-06T03:10:19.361Z,5.28
2022-11-06T03:15:55.868Z,4.65
2022-11-06T03:21:18.512Z,5.22
2022-11-06T03:26:27.271Z,5.22
2022-11-06T03:31:32.571Z,4.63
2022-11-06T03:36:36.633Z,4.93
2022-11-06T03:41:50.999Z,4.43
2022-11-06T03:46:55.788Z,5.65
2022-11-06T03:52:00.389Z,4.82
2022-11-06T03:57:14.114Z,5.28
2022-11-06T04:02:16.396Z,5.10
2022-11-06T04:07:19.851Z,4.70
2022-11-06T04:12:43.908Z,6.18
2022-11-06T04:17:42.714Z,5.03
2022-11-06T04:22:50.598Z,4.93
2022-11-06T04:27:58.961Z,4.78
2022-11-06T04:33:13.192Z,5.00
2022-11-06T04:38:50.403Z,5.55
2022-11-06T04:43:54.984Z,4.82
2022-11-06T04:48:55.043Z,5.80
2022-11-06T04:53:55.085Z,5.15
2022-11-06T04:58:53.797Z,4.55
2022-11-06T05:03:52.583Z,5.85
2022-11-06T05:08:51.400Z,5.22
2022-11-06T05:13:50.256Z,5.28
2022-11-06T05:18:48.904Z,5.65
2022-11-06T05:23:47.815Z,6.22
2022-11-06T05:28:46.579Z,6.40
2022-11-06T05:33:45.498Z,6.40
2022-11-06T05:38:44.285Z,5.88
2022-11-06T05:43:43.500Z,6.30
2022-11-06T05:48:42.399Z,5.75
2022-11-06T05:53:41.118Z,6.43
2022-11-06T05:58:39.861Z,7.00
2022-11-06T06:03:38.644Z,6.35
2022-11-06T06:08:37.556Z,7.38
2022-11-06T06:13:40.049Z,7.65
2022-11-06T06:18:38.812Z,7.13
2022-11-06T06:23:37.469Z,7.80
2022-11-06T06:28:36.437Z,7.13
2022-11-06T06:33:36.137Z,7.63
2022-11-06T06:38:34.877Z,7.15
2022-11-06T06:43:35.222Z,6.25
2022-11-06T06:48:34.434Z,6.88
2022-11-06T06:53:33.663Z,6.60
2022-11-06T06:58:32.454Z,6.43
2022-11-06T07:03:31.773Z,6.65
2022-11-06T07:08:30.898Z,6.78
2022-11-06T07:13:35.496Z,6.55
2022-11-06T07:18:35.538Z,7.22
2022-11-06T07:23:37.717Z,6.78
2022-11-06T07:28:36.452Z,6.40
2022-11-06T07:33:36.019Z,6.65
2022-11-06T07:38:36.042Z,6.60
2022-11-06T07:43:34.961Z,5.97
2022-11-06T07:48:34.176Z,7.05
2022-11-06T07:53:33.234Z,6.95
2022-11-06T07:58:33.547Z,7.35
2022-11-06T08:03:32.263Z,7.05
2022-11-06T08:08:31.514Z,8.23
2022-11-06T08:13:30.437Z,7.57
2022-11-06T08:18:29.139Z,7.55
2022-11-06T08:23:28.330Z,7.90
2022-11-06T08:28:28.726Z,7.68
2022-11-06T08:33:27.370Z,8.27
2022-11-06T08:38:26.154Z,8.35
2022-11-06T08:43:26.598Z,8.70
2022-11-06T08:48:25.385Z,8.32
2022-11-06T08:53:24.105Z,8.18
2022-11-06T08:58:22.875Z,8.63
2022-11-06T09:03:21.959Z,7.13
2022-11-06T09:08:20.766Z,8.38
2022-11-06T09:13:22.607Z,7.70
2022-11-06T09:18:21.415Z,7.45
2022-11-06T09:23:20.088Z,7.15
2022-11-06T09:28:19.255Z,7.32
2022-11-06T09:33:19.647Z,8.05
2022-11-06T09:38:25.833Z,7.93
2022-11-06T09:44:05.265Z,8.40
2022-11-06T09:54:18.771Z,6.72
2022-11-06T09:59:20.746Z,6.85
2022-11-06T10:04:41.957Z,4.90
2022-11-06T10:09:41.009Z,6.38
2022-11-06T10:15:16.742Z,5.78
2022-11-06T10:20:27.053Z,5.97
2022-11-06T10:25:42.741Z,5.30
2022-11-06T10:36:02.824Z,5.05
2022-11-06T10:41:02.021Z,3.33
2022-11-06T10:46:19.451Z,3.80
2022-11-06T10:51:43.968Z,2.75
2022-11-06T10:57:13.011Z,3.05
2022-11-06T11:02:24.450Z,3.22
2022-11-06T11:07:23.416Z,2.40
2022-11-06T11:12:24.009Z,2.60
2022-11-06T11:17:22.790Z,3.03
2022-11-06T11:22:22.009Z,2.72
2022-11-06T11:27:20.851Z,2.58
2022-11-06T11:32:21.736Z,2.92
2022-11-06T11:37:28.075Z,1.80
2022-11-06T11:42:29.574Z,2.70
2022-11-06T11:47:28.459Z,2.85
2022-11-06T11:52:27.377Z,2.75
2022-11-06T11:57:27.084Z,2.55
2022-11-06T12:02:36.379Z,2.35
2022-11-06T12:07:44.890Z,1.98
2022-11-06T12:12:50.237Z,2.20
2022-11-06T12:17:54.654Z,2.65
2022-11-06T12:22:55.927Z,2.42
2022-11-06T12:27:59.286Z,3.00
2022-11-06T12:33:01.146Z,2.90
2022-11-06T12:38:20.235Z,2.47
2022-11-06T12:43:40.421Z,2.63
2022-11-06T12:48:42.050Z,2.50
2022-11-06T12:54:05.944Z,3.70
2022-11-06T12:59:04.649Z,2.97
2022-11-06T13:04:40.831Z,2.97
2022-11-06T13:10:01.181Z,3.30
2022-11-06T13:15:12.395Z,3.85
2022-11-06T13:20:27.395Z,3.10
2022-11-06T13:25:51.361Z,3.70
2022-11-06T13:30:52.200Z,4.10
2022-11-06T13:35:51.376Z,4.43
2022-11-06T13:40:53.791Z,4.18
2022-11-06T13:45:59.571Z,4.30
2022-11-06T13:51:14.167Z,5.05
2022-11-06T13:56:55.209Z,4.80
2022-11-06T14:02:15.383Z,5.25
2022-11-06T14:07:16.908Z,6.30
2022-11-06T14:12:20.693Z,5.57
2022-11-06T14:17:24.199Z,6.70
2022-11-06T14:22:29.589Z,7.97
2022-11-06T14:27:28.771Z,8.68
2022-11-06T14:32:37.927Z,8.30
2022-11-06T14:37:44.536Z,7.63
2022-11-06T14:42:46.460Z,9.02
2022-11-06T14:47:53.170Z,8.80
2022-11-06T14:52:58.301Z,8.75
2022-11-06T14:58:11.959Z,8.48
2022-11-06T15:03:22.402Z,7.22
2022-11-06T15:09:11.475Z,10.38
2022-11-06T15:14:10.087Z,10.27
2022-11-06T15:19:19.799Z,9.43
2022-11-06T15:24:29.364Z,9.18
2022-11-06T15:29:44.122Z,10.02
2022-11-06T15:34:49.003Z,10.23
2022-11-06T15:39:47.589Z,10.98
2022-11-06T15:44:48.236Z,9.65
2022-11-06T15:49:47.175Z,10.77
2022-11-06T15:54:48.656Z,9.77
2022-11-06T15:59:47.827Z,10.40
2022-11-06T16:04:47.892Z,10.18
2022-11-06T16:09:47.568Z,10.15
2022-11-06T16:14:46.447Z,11.25
2022-11-06T16:19:47.979Z,10.48
2022-11-06T16:25:00.184Z,10.15
2022-11-06T16:30:01.542Z,9.63
2022-11-06T16:35:00.604Z,10.10
2022-11-06T16:40:00.066Z,11.55
2022-11-06T16:45:07.975Z,10.93
2022-11-06T16:50:51.602Z,10.77
2022-11-06T16:55:55.946Z,12.25
2022-11-06T17:00:58.990Z,11.63
2022-11-06T17:05:58.861Z,12.55
2022-11-06T17:10:58.767Z,12.20
2022-11-06T17:16:03.161Z,10.75
2022-11-06T17:21:11.149Z,11.50
2022-11-06T17:26:24.091Z,12.10
2022-11-06T17:31:24.065Z,12.30
2022-11-06T17:36:25.413Z,12.02
2022-11-06T17:41:32.462Z,11.10
2022-11-06T17:46:45.628Z,10.35
2022-11-06T17:51:50.527Z,11.30
2022-11-06T17:56:51.683Z,11.23
2022-11-06T18:01:51.707Z,13.18
2022-11-06T18:06:54.648Z,12.07
2022-11-06T18:11:54.924Z,11.48
2022-11-06T18:16:54.092Z,11.73
2022-11-06T18:21:54.423Z,11.02
2022-11-06T18:26:53.499Z,12.48
2022-11-06T18:31:52.218Z,13.10
2022-11-06T18:36:50.979Z,12.70
2022-11-06T18:41:49.670Z,12.50
2022-11-06T18:46:48.451Z,12.70
2022-11-06T18:51:47.199Z,13.82
2022-11-06T18:56:45.967Z,13.20
2022-11-06T19:01:44.867Z,12.40
2022-11-06T19:06:43.708Z,12.82
2022-11-06T19:11:42.862Z,12.35
2022-11-06T19:16:41.622Z,12.10
2022-11-06T19:21:46.046Z,12.15
2022-11-06T19:26:44.754Z,11.38
2022-11-06T19:31:43.572Z,12.10
2022-11-06T19:36:44.499Z,11.15
2022-11-06T19:41:43.219Z,12.02
2022-11-06T19:46:41.890Z,11.43
2022-11-06T19:51:43.545Z,11.07
2022-11-06T19:57:28.766Z,12.20
2022-11-06T20:02:01.221Z,11.07
2022-11-06T20:07:00.143Z,10.88
2022-11-06T20:11:58.903Z,11.18
2022-11-06T20:16:57.582Z,12.00
2022-11-06T20:21:56.423Z,11.10
2022-11-06T20:26:55.162Z,11.25
2022-11-06T20:31:53.875Z,10.90
2022-11-06T20:36:52.899Z,11.80
2022-11-06T20:41:52.690Z,10.73
2022-11-06T20:46:51.428Z,12.75
2022-11-06T20:52:12.772Z,12.02
2022-11-06T20:57:09.015Z,11.25
2022-11-06T21:02:11.111Z,11.65
2022-11-06T21:07:10.312Z,9.57
2022-11-06T21:12:09.369Z,11.63
2022-11-06T21:17:08.250Z,11.15
2022-11-06T21:22:06.960Z,11.32
2022-11-06T21:27:05.772Z,11.38
2022-11-06T21:32:05.172Z,11.05
2022-11-06T21:37:03.960Z,11.32
2022-11-06T21:42:02.898Z,10.18
2022-11-06T21:47:01.576Z,10.45
2022-11-06T21:52:22.837Z,9.57
2022-11-06T21:57:23.888Z,9.68
2022-11-06T22:02:22.798Z,9.98
2022-11-06T22:07:21.726Z,9.18
2022-11-06T22:12:20.484Z,8.35
2022-11-06T22:17:20.208Z,8.48
2022-11-06T22:22:18.906Z,9.07
2022-11-06T22:27:17.659Z,9.15
2022-11-06T22:32:16.561Z,9.23
2022-11-06T22:37:15.306Z,8.77
2022-11-06T22:42:13.944Z,8.32
2022-11-06T22:47:13.132Z,8.25
2022-11-06T22:52:14.692Z,7.88
2022-11-06T22:57:13.382Z,7.72
2022-11-06T23:02:12.405Z,7.43
2022-11-06T23:07:11.403Z,7.88
2022-11-06T23:12:10.495Z,6.38
2022-11-06T23:17:09.274Z,7.93
2022-11-06T23:22:26.539Z,7.97
2022-11-06T23:27:25.931Z,6.57
2022-11-06T23:32:25.762Z,7.22
2022-11-06T23:37:25.516Z,7.07
2022-11-06T23:42:24.194Z,7.70
2022-11-06T23:47:22.925Z,6.75
2022-11-06T23:52:21.992Z,7.28
2022-11-06T23:57:21.627Z,8.13
